createdAt,value
2019-03-08T00:01:11.119Z,4.47
2019-03-08T00:03:38.804Z,8.67
2019-03-08T00:06:06.445Z,5.60
2019-03-08T00:08:34.135Z,8.33
2019-03-08T00:11:02.110Z,6.50
2019-03-08T00:13:29.814Z,7.33
2019-03-08T00:15:57.550Z,4.17
2019-03-08T00:18:25.293Z,6.10
2019-03-08T00:20:52.944Z,7.73
2019-03-08T00:23:20.723Z,6.13
2019-03-08T00:25:48.417Z,4.10
2019-03-08T00:28:16.128Z,6.73
2019-03-08T00:30:43.876Z,9.03
2019-03-08T00:33:11.656Z,5.00
2019-03-08T00:35:39.427Z,7.20
2019-03-08T00:38:07.284Z,4.53
2019-03-08T00:40:34.995Z,7.57
2019-03-08T00:43:03.026Z,8.83
2019-03-08T00:45:30.708Z,5.43
2019-03-08T00:47:58.471Z,7.13
2019-03-08T00:50:26.188Z,7.17
2019-03-08T00:52:53.995Z,6.73
2019-03-08T00:55:21.791Z,5.87
2019-03-08T00:57:49.457Z,7.20
2019-03-08T01:00:17.674Z,5.43
2019-03-08T01:02:45.357Z,7.23
2019-03-08T01:05:13.296Z,8.13
2019-03-08T01:07:41.048Z,5.03
2019-03-08T01:10:11.047Z,8.30
2019-03-08T01:12:38.831Z,7.37
2019-03-08T01:15:06.861Z,9.47
2019-03-08T01:17:34.500Z,9.90
2019-03-08T01:20:02.335Z,7.03
2019-03-08T01:22:29.958Z,7.40
2019-03-08T01:24:57.698Z,6.20
2019-03-08T01:27:25.430Z,10.93
2019-03-08T01:29:53.287Z,11.33
2019-03-08T01:32:21.045Z,8.07
2019-03-08T01:34:48.662Z,6.60
2019-03-08T01:37:16.389Z,5.30
2019-03-08T01:39:44.045Z,8.43
2019-03-08T01:42:11.765Z,5.73
2019-03-08T01:44:39.479Z,7.80
2019-03-08T01:47:07.168Z,4.97
2019-03-08T01:49:34.792Z,8.17
2019-03-08T01:52:02.501Z,8.10
2019-03-08T01:54:30.115Z,8.23
2019-03-08T01:56:57.805Z,9.37
2019-03-08T01:59:25.526Z,6.67
2019-03-08T02:01:53.482Z,9.13
2019-03-08T02:04:21.216Z,10.10
2019-03-08T02:06:48.904Z,9.17
2019-03-08T02:09:16.567Z,10.17
2019-03-08T02:11:44.323Z,6.73
2019-03-08T02:14:12.058Z,6.10
2019-03-08T02:16:40.071Z,11.30
2019-03-08T02:19:07.790Z,8.30
2019-03-08T02:21:35.568Z,9.07
2019-03-08T02:24:03.157Z,7.93
2019-03-08T02:26:30.827Z,7.27
2019-03-08T02:29:05.100Z,7.77
2019-03-08T02:31:33.004Z,7.73
2019-03-08T02:34:00.679Z,6.20
2019-03-08T02:36:28.391Z,7.10
2019-03-08T02:38:55.985Z,9.40
2019-03-08T02:41:23.843Z,7.83
2019-03-08T02:43:51.493Z,8.83
2019-03-08T02:46:19.210Z,8.93
2019-03-08T02:48:46.875Z,10.37
2019-03-08T02:51:14.532Z,8.37
2019-03-08T02:53:42.148Z,7.13
2019-03-08T02:56:09.838Z,5.57
2019-03-08T02:58:37.600Z,7.17
2019-03-08T03:01:05.323Z,9.90
2019-03-08T03:03:33.306Z,4.83
2019-03-08T03:06:00.903Z,7.17
2019-03-08T03:08:28.634Z,7.03
2019-03-08T03:10:56.329Z,5.83
2019-03-08T03:13:24.036Z,6.47
2019-03-08T03:15:51.604Z,6.57
2019-03-08T03:18:19.592Z,5.93
2019-03-08T03:20:47.373Z,4.33
2019-03-08T03:23:15.107Z,8.07
2019-03-08T03:25:42.796Z,6.07
2019-03-08T03:28:10.491Z,5.40
2019-03-08T03:30:38.210Z,10.20
2019-03-08T03:33:05.898Z,8.47
2019-03-08T03:35:33.578Z,8.90
2019-03-08T03:38:01.281Z,11.27
2019-03-08T03:40:28.967Z,11.83
2019-03-08T03:42:56.555Z,8.80
2019-03-08T03:45:24.251Z,8.27
2019-03-08T03:47:51.899Z,8.07
2019-03-08T03:50:22.721Z,9.57
2019-03-08T03:52:50.508Z,9.13
2019-03-08T03:55:18.250Z,11.90
2019-03-08T03:57:45.922Z,13.10
2019-03-08T04:00:14.160Z,13.23
2019-03-08T04:02:41.835Z,9.17
2019-03-08T04:05:09.708Z,7.90
2019-03-08T04:07:37.314Z,9.90
2019-03-08T04:10:05.162Z,9.17
2019-03-08T04:12:32.894Z,8.60
2019-03-08T04:15:00.536Z,11.77
2019-03-08T04:17:28.199Z,9.33
2019-03-08T04:19:55.909Z,7.33
2019-03-08T04:22:23.776Z,10.57
2019-03-08T04:24:51.448Z,10.27
2019-03-08T04:27:19.255Z,10.47
2019-03-08T04:29:46.967Z,10.57
2019-03-08T04:32:14.692Z,12.00
2019-03-08T04:34:42.351Z,8.40
2019-03-08T04:37:10.442Z,12.17
2019-03-08T04:39:38.118Z,15.50
2019-03-08T04:42:05.766Z,13.23
2019-03-08T04:44:33.480Z,13.60
2019-03-08T04:47:01.101Z,13.17
2019-03-08T04:49:28.743Z,11.40
2019-03-08T04:51:56.449Z,10.60
2019-03-08T04:54:24.480Z,9.63
2019-03-08T04:56:52.453Z,8.33
2019-03-08T04:59:20.140Z,9.37
2019-03-08T05:01:47.781Z,14.57
2019-03-08T05:04:15.430Z,14.17
2019-03-08T05:06:43.129Z,12.00
2019-03-08T05:09:11.112Z,12.67
2019-03-08T05:11:38.855Z,13.40
2019-03-08T05:14:06.480Z,10.87
2019-03-08T05:16:34.160Z,11.67
2019-03-08T05:19:01.827Z,12.67
2019-03-08T05:21:30.695Z,12.90
2019-03-08T05:23:58.661Z,18.87
2019-03-08T05:26:26.441Z,12.97
2019-03-08T05:28:54.121Z,13.70
2019-03-08T05:31:21.841Z,15.27
2019-03-08T05:33:49.519Z,17.30
2019-03-08T05:36:17.229Z,13.20
2019-03-08T05:38:50.136Z,13.87
2019-03-08T05:41:17.900Z,11.80
2019-03-08T05:43:45.655Z,10.40
2019-03-08T05:46:13.338Z,16.10
2019-03-08T05:48:41.065Z,11.03
2019-03-08T05:51:08.742Z,16.10
2019-03-08T05:53:36.437Z,13.03
2019-03-08T05:56:04.062Z,14.80
2019-03-08T05:58:31.732Z,13.97
2019-03-08T06:00:59.590Z,17.40
2019-03-08T06:03:27.357Z,11.00
2019-03-08T06:05:55.167Z,12.47
2019-03-08T06:08:22.848Z,13.07
2019-03-08T06:10:50.592Z,13.20
2019-03-08T06:13:18.642Z,15.27
2019-03-08T06:15:46.234Z,20.17
2019-03-08T06:18:13.960Z,11.87
2019-03-08T06:20:41.570Z,14.43
2019-03-08T06:23:09.197Z,15.40
2019-03-08T06:25:36.863Z,18.50
2019-03-08T06:28:04.582Z,12.93
2019-03-08T06:30:32.613Z,16.77
2019-03-08T06:33:00.378Z,19.83
2019-03-08T06:35:28.095Z,20.17
2019-03-08T06:37:55.793Z,15.93
2019-03-08T06:40:23.457Z,14.43
2019-03-08T06:42:51.957Z,13.40
2019-03-08T06:45:19.638Z,15.67
2019-03-08T06:47:47.543Z,15.37
2019-03-08T06:50:15.301Z,11.00
2019-03-08T06:52:43.125Z,17.20
2019-03-08T06:55:11.140Z,17.37
2019-03-08T06:57:38.820Z,12.73
2019-03-08T07:00:28.353Z,14.43
2019-03-08T07:02:55.989Z,16.17
2019-03-08T07:05:23.700Z,12.67
2019-03-08T07:07:51.436Z,15.93
2019-03-08T07:10:19.054Z,15.27
2019-03-08T07:12:46.766Z,16.40
2019-03-08T07:15:14.775Z,18.83
2019-03-08T07:17:42.516Z,14.10
2019-03-08T07:20:38.747Z,19.70
2019-03-08T07:23:31.616Z,15.77
2019-03-08T07:26:17.423Z,16.63
2019-03-08T07:29:19.674Z,14.63
2019-03-08T07:32:07.465Z,15.03
2019-03-08T07:35:06.767Z,15.53
2019-03-08T07:37:50.975Z,16.23
2019-03-08T07:40:37.087Z,11.57
2019-03-08T07:43:22.930Z,15.97
2019-03-08T07:46:11.433Z,14.07
2019-03-08T07:48:51.444Z,9.67
2019-03-08T07:51:37.299Z,13.97
2019-03-08T07:54:21.030Z,15.43
2019-03-08T07:56:59.507Z,13.67
2019-03-08T07:59:53.554Z,13.60
2019-03-08T08:02:35.769Z,18.97
2019-03-08T08:05:13.074Z,14.50
2019-03-08T08:08:19.727Z,14.67
2019-03-08T08:11:06.902Z,17.23
2019-03-08T08:13:50.561Z,20.00
2019-03-08T08:16:36.777Z,17.70
2019-03-08T08:19:35.457Z,19.03
2019-03-08T08:22:20.280Z,15.20
2019-03-08T08:25:01.563Z,12.70
2019-03-08T08:27:36.454Z,18.50
2019-03-08T08:30:15.376Z,16.57
2019-03-08T08:33:05.515Z,14.40
2019-03-08T08:36:07.751Z,21.33
2019-03-08T08:39:10.032Z,16.47
2019-03-08T08:42:03.370Z,16.47
2019-03-08T08:44:38.011Z,17.90
2019-03-08T08:47:28.152Z,17.30
2019-03-08T08:50:12.829Z,18.40
2019-03-08T08:52:49.883Z,16.60
2019-03-08T08:55:27.709Z,14.63
2019-03-08T08:58:26.984Z,18.33
2019-03-08T09:01:16.984Z,14.10
2019-03-08T09:03:55.677Z,15.73
2019-03-08T09:06:42.777Z,15.20
2019-03-08T09:09:19.981Z,17.23
2019-03-08T09:12:13.303Z,16.97
2019-03-08T09:14:55.135Z,19.73
2019-03-08T09:17:45.342Z,15.90
2019-03-08T09:20:32.661Z,19.00
2019-03-08T09:23:23.235Z,16.13
2019-03-08T09:25:57.252Z,16.83
2019-03-08T09:28:59.432Z,17.40
2019-03-08T09:31:35.589Z,11.37
2019-03-08T09:34:38.142Z,20.37
2019-03-08T09:37:17.972Z,15.30
2019-03-08T09:40:03.795Z,12.93
2019-03-08T09:42:46.606Z,19.17
2019-03-08T09:45:46.162Z,17.33
2019-03-08T09:48:26.303Z,22.43
2019-03-08T09:51:09.665Z,21.43
2019-03-08T09:54:02.941Z,20.10
2019-03-08T09:56:55.921Z,12.63
2019-03-08T09:59:38.202Z,12.17
2019-03-08T10:02:20.539Z,11.60
2019-03-08T10:05:02.503Z,16.03
2019-03-08T10:08:04.758Z,18.03
2019-03-08T10:10:37.933Z,13.80
2019-03-08T10:13:12.435Z,12.40
2019-03-08T10:15:48.698Z,20.37
2019-03-08T10:18:51.207Z,13.40
2019-03-08T10:21:42.214Z,18.37
2019-03-08T10:24:28.112Z,15.83
2019-03-08T10:27:15.406Z,15.80
2019-03-08T10:30:01.485Z,16.43
2019-03-08T10:32:47.207Z,14.90
2019-03-08T10:35:37.549Z,11.53
2019-03-08T10:38:27.668Z,6.70
2019-03-08T10:41:27.185Z,11.33
2019-03-08T10:44:26.607Z,8.77
2019-03-08T10:47:22.391Z,11.17
2019-03-08T10:50:27.751Z,11.40
2019-03-08T10:53:17.675Z,7.10
2019-03-08T10:56:11.610Z,6.63
2019-03-08T10:58:57.792Z,11.67
2019-03-08T11:01:43.855Z,12.07
2019-03-08T11:04:31.003Z,11.83
2019-03-08T11:07:20.925Z,11.83
2019-03-08T11:10:08.818Z,12.30
2019-03-08T11:12:43.426Z,11.20
2019-03-08T11:15:34.276Z,13.67
2019-03-08T11:18:39.552Z,12.17
2019-03-08T11:21:31.123Z,9.53
2019-03-08T11:24:18.474Z,11.93
2019-03-08T11:27:11.440Z,10.63
2019-03-08T11:30:08.964Z,12.87
2019-03-08T11:32:46.282Z,14.33
2019-03-08T11:35:45.375Z,9.37
2019-03-08T11:38:29.349Z,13.80
2019-03-08T11:41:28.738Z,10.53
2019-03-08T11:44:27.893Z,12.80
2019-03-08T11:47:07.103Z,13.40
2019-03-08T11:50:12.562Z,10.43
2019-03-08T11:53:12.016Z,16.43
2019-03-08T11:55:56.455Z,11.73
2019-03-08T11:58:42.217Z,8.53
2019-03-08T12:01:26.175Z,13.33
2019-03-08T12:04:13.396Z,8.70
2019-03-08T12:06:59.400Z,5.50
2019-03-08T12:09:48.224Z,8.00
2019-03-08T12:12:35.702Z,12.17
2019-03-08T12:15:22.581Z,4.97
2019-03-08T12:18:06.831Z,8.70
2019-03-08T12:21:03.755Z,8.73
2019-03-08T12:23:56.789Z,8.23
2019-03-08T12:26:34.406Z,6.57
2019-03-08T12:29:21.606Z,8.87
2019-03-08T12:32:10.889Z,7.60
2019-03-08T12:34:43.823Z,6.63
2019-03-08T12:37:26.477Z,8.37
2019-03-08T12:40:09.754Z,5.57
2019-03-08T12:43:08.369Z,6.30
2019-03-08T12:45:55.086Z,10.03
2019-03-08T12:48:42.211Z,9.20
2019-03-08T12:51:35.141Z,7.70
2019-03-08T12:54:19.571Z,7.80
2019-03-08T12:57:07.077Z,6.93
2019-03-08T12:59:42.172Z,8.47
2019-03-08T13:02:18.596Z,6.60
2019-03-08T13:05:18.030Z,8.90
2019-03-08T13:08:17.565Z,7.97
2019-03-08T13:10:45.228Z,8.10
2019-03-08T13:13:13.120Z,5.73
2019-03-08T13:15:40.807Z,8.20
2019-03-08T13:18:08.592Z,7.53
2019-03-08T13:20:36.222Z,7.20
2019-03-08T13:23:04.879Z,8.67
2019-03-08T13:25:32.570Z,12.33
2019-03-08T13:28:00.265Z,7.97
2019-03-08T13:30:28.018Z,8.23
2019-03-08T13:32:55.776Z,8.57
2019-03-08T13:35:23.571Z,7.27
2019-03-08T13:37:51.610Z,9.83
2019-03-08T13:40:19.249Z,5.10
2019-03-08T13:42:46.867Z,9.93
2019-03-08T13:45:15.288Z,7.40
2019-03-08T13:47:42.977Z,6.83
2019-03-08T13:50:11.311Z,7.40
2019-03-08T13:52:39.058Z,7.30
2019-03-08T13:55:09.726Z,7.43
2019-03-08T13:57:37.682Z,7.87
2019-03-08T14:00:07.340Z,6.13
2019-03-08T14:02:35.121Z,5.93
2019-03-08T14:05:02.842Z,6.57
2019-03-08T14:07:36.711Z,7.67
2019-03-08T14:10:05.642Z,9.70
2019-03-08T14:12:33.346Z,7.40
2019-03-08T14:15:00.987Z,6.87
2019-03-08T14:17:28.889Z,10.87
2019-03-08T14:19:59.351Z,7.93
2019-03-08T14:22:27.254Z,7.40
2019-03-08T14:24:55.475Z,6.77
2019-03-08T14:27:23.106Z,7.37
2019-03-08T14:29:50.844Z,6.87
2019-03-08T14:32:21.301Z,10.10
2019-03-08T14:34:49.656Z,9.70
2019-03-08T14:37:19.925Z,7.83
2019-03-08T14:39:48.303Z,7.03
2019-03-08T14:42:27.436Z,8.27
2019-03-08T14:45:08.879Z,6.73
2019-03-08T14:47:39.281Z,10.37
2019-03-08T14:50:11.020Z,8.00
2019-03-08T14:52:38.647Z,7.83
2019-03-08T14:55:08.104Z,5.90
2019-03-08T14:57:36.198Z,7.87
2019-03-08T15:00:05.251Z,9.37
2019-03-08T15:02:32.964Z,10.37
2019-03-08T15:05:10.663Z,7.30
2019-03-08T15:07:30.257Z,6.43
2019-03-08T15:09:58.252Z,7.03
2019-03-08T15:12:26.197Z,8.07
2019-03-08T15:14:54.074Z,6.73
2019-03-08T15:17:21.766Z,7.57
2019-03-08T15:19:49.443Z,6.73
2019-03-08T15:22:17.427Z,7.67
2019-03-08T15:24:45.170Z,7.43
2019-03-08T15:27:12.997Z,5.53
2019-03-08T15:29:40.784Z,6.13
2019-03-08T15:32:08.924Z,5.17
2019-03-08T15:34:36.621Z,4.87
2019-03-08T15:37:04.385Z,7.07
2019-03-08T15:39:32.060Z,6.83
2019-03-08T15:42:03.454Z,5.60
2019-03-08T15:44:31.201Z,8.63
2019-03-08T15:46:59.211Z,8.20
2019-03-08T15:49:30.583Z,8.37
2019-03-08T15:51:59.916Z,9.00
2019-03-08T15:54:32.305Z,6.27
2019-03-08T15:57:00.092Z,7.50
2019-03-08T15:59:27.729Z,5.17
2019-03-08T16:01:55.371Z,5.60
2019-03-08T16:04:23.010Z,6.33
2019-03-08T16:06:50.678Z,6.30
2019-03-08T16:09:18.656Z,6.53
2019-03-08T16:11:46.352Z,7.20
2019-03-08T16:14:13.946Z,6.80
2019-03-08T16:16:41.736Z,6.63
2019-03-08T16:19:09.363Z,5.37
2019-03-08T16:21:37.076Z,7.43
2019-03-08T16:24:05.048Z,5.00
2019-03-08T16:26:32.690Z,5.93
2019-03-08T16:29:00.365Z,4.67
2019-03-08T16:31:56.420Z,4.77
2019-03-08T16:34:24.111Z,7.77
2019-03-08T16:37:01.724Z,6.63
2019-03-08T16:39:47.483Z,4.17
2019-03-08T16:42:52.879Z,6.77
2019-03-08T16:45:50.550Z,9.13
2019-03-08T16:48:24.580Z,6.77
2019-03-08T16:51:30.181Z,5.60
2019-03-08T16:54:14.544Z,7.73
2019-03-08T16:57:00.319Z,7.70
2019-03-08T16:59:50.272Z,7.30
2019-03-08T17:02:37.379Z,5.77
2019-03-08T17:05:27.260Z,5.13
2019-03-08T17:08:17.608Z,5.93
2019-03-08T17:10:58.069Z,5.27
2019-03-08T17:13:54.356Z,4.60
2019-03-08T17:16:50.529Z,5.00
2019-03-08T17:19:35.789Z,6.37
2019-03-08T17:22:21.764Z,6.53
2019-03-08T17:24:57.283Z,7.63
2019-03-08T17:27:44.735Z,4.70
2019-03-08T17:30:48.076Z,7.77
2019-03-08T17:33:34.129Z,5.53
2019-03-08T17:36:27.137Z,5.97
2019-03-08T17:39:04.191Z,5.27
2019-03-08T17:41:51.905Z,3.77
2019-03-08T17:44:41.794Z,7.30
2019-03-08T17:47:29.010Z,6.80
2019-03-08T17:50:22.228Z,6.80
2019-03-08T17:53:18.399Z,5.80
2019-03-08T17:56:14.827Z,7.53
2019-03-08T17:59:03.280Z,6.90
2019-03-08T18:01:43.213Z,9.03
2019-03-08T18:04:30.329Z,7.23
2019-03-08T18:07:17.564Z,9.23
2019-03-08T18:10:22.819Z,8.33
2019-03-08T18:13:10.003Z,7.13
2019-03-08T18:15:57.142Z,6.20
2019-03-08T18:18:50.797Z,6.30
2019-03-08T18:21:49.924Z,4.60
2019-03-08T18:24:55.520Z,7.07
2019-03-08T18:27:32.470Z,8.03
2019-03-08T18:30:20.978Z,8.97
2019-03-08T18:32:56.784Z,5.60
2019-03-08T18:35:56.210Z,6.50
2019-03-08T18:38:42.165Z,5.03
2019-03-08T18:41:17.116Z,7.60
2019-03-08T18:44:05.289Z,7.23
2019-03-08T18:46:50.597Z,6.53
2019-03-08T18:49:39.203Z,6.17
2019-03-08T18:52:26.418Z,7.43
2019-03-08T18:55:12.162Z,12.17
2019-03-08T18:58:02.114Z,10.10
2019-03-08T19:00:58.314Z,10.03
2019-03-08T19:03:44.564Z,7.80
2019-03-08T19:06:20.538Z,6.77
2019-03-08T19:09:16.738Z,6.43
2019-03-08T19:12:04.010Z,8.77
2019-03-08T19:14:51.169Z,10.07
2019-03-08T19:17:38.428Z,8.77
2019-03-08T19:20:31.761Z,10.03
2019-03-08T19:23:16.669Z,7.30
2019-03-08T19:26:06.771Z,9.33
2019-03-08T19:28:52.908Z,11.73
2019-03-08T19:31:35.769Z,9.50
2019-03-08T19:34:25.861Z,10.30
2019-03-08T19:37:05.043Z,6.23
2019-03-08T19:40:04.602Z,9.70
2019-03-08T19:42:50.603Z,11.50
2019-03-08T19:45:37.358Z,9.03
2019-03-08T19:48:28.688Z,8.27
2019-03-08T19:51:08.630Z,8.77
2019-03-08T19:53:41.815Z,7.00
2019-03-08T19:56:44.055Z,8.37
2019-03-08T19:59:21.237Z,9.67
2019-03-08T20:02:08.329Z,12.30
2019-03-08T20:07:52.397Z,11.83
2019-03-08T20:10:53.446Z,12.53
2019-03-08T20:13:40.918Z,12.27
2019-03-08T20:16:27.079Z,10.17
2019-03-08T20:19:30.133Z,12.60
2019-03-08T20:22:17.267Z,13.97
2019-03-08T20:25:04.398Z,11.80
2019-03-08T20:28:03.645Z,14.30
2019-03-08T20:30:55.582Z,8.87
2019-03-08T20:33:54.639Z,9.30
2019-03-08T20:36:57.254Z,12.67
2019-03-08T20:39:46.676Z,10.83
2019-03-08T20:42:32.382Z,8.20
2019-03-08T20:45:10.533Z,8.83
2019-03-08T20:47:38.341Z,8.33
2019-03-08T20:50:08.171Z,7.57
2019-03-08T20:52:35.770Z,13.40
2019-03-08T20:55:03.569Z,10.93
2019-03-08T20:57:31.220Z,11.70
2019-03-08T20:59:58.955Z,11.07
2019-03-08T21:02:26.573Z,8.87
2019-03-08T21:04:54.202Z,11.37
2019-03-08T21:07:21.830Z,8.20
2019-03-08T21:09:49.463Z,8.70
2019-03-08T21:12:17.165Z,7.70
2019-03-08T21:14:44.754Z,12.67
2019-03-08T21:17:12.461Z,7.30
2019-03-08T21:19:40.269Z,9.00
2019-03-08T21:22:07.874Z,8.00
2019-03-08T21:24:35.728Z,8.07
2019-03-08T21:27:04.742Z,12.53
2019-03-08T21:29:32.534Z,9.20
2019-03-08T21:32:00.339Z,9.70
2019-03-08T21:34:28.044Z,8.67
2019-03-08T21:36:55.773Z,11.30
2019-03-08T21:39:23.510Z,10.60
2019-03-08T21:41:51.094Z,9.07
2019-03-08T21:44:18.793Z,9.20
2019-03-08T21:46:46.891Z,14.40
2019-03-08T21:49:14.783Z,9.70
2019-03-08T21:51:42.742Z,9.30
2019-03-08T21:54:10.358Z,8.13
2019-03-08T21:56:38.070Z,7.77
2019-03-08T21:59:05.737Z,8.67
2019-03-08T22:01:33.753Z,9.57
2019-03-08T22:04:06.001Z,12.83
2019-03-08T22:06:33.676Z,12.03
2019-03-08T22:09:07.425Z,10.27
2019-03-08T22:11:37.222Z,7.73
2019-03-08T22:14:04.882Z,9.60
2019-03-08T22:16:32.538Z,11.60
2019-03-08T22:19:00.186Z,9.70
2019-03-08T22:21:27.840Z,9.93
2019-03-08T22:23:55.470Z,8.00
2019-03-08T22:26:23.136Z,7.47
2019-03-08T22:28:50.850Z,8.83
2019-03-08T22:31:18.556Z,8.60
2019-03-08T22:33:46.207Z,7.83
2019-03-08T22:36:15.757Z,8.93
2019-03-08T22:38:43.380Z,9.17
2019-03-08T22:41:10.994Z,12.13
2019-03-08T22:43:38.636Z,7.90
2019-03-08T22:46:06.296Z,6.87
2019-03-08T22:48:33.871Z,8.23
2019-03-08T22:51:01.459Z,8.50
2019-03-08T22:53:29.077Z,7.43
2019-03-08T22:55:56.778Z,6.93
2019-03-08T22:58:24.385Z,6.03
2019-03-08T23:01:12.142Z,9.67
2019-03-08T23:03:39.997Z,5.97
2019-03-08T23:06:07.644Z,6.17
2019-03-08T23:08:35.281Z,7.47
2019-03-08T23:11:03.030Z,7.07
2019-03-08T23:13:30.640Z,8.20
2019-03-08T23:15:58.306Z,8.73
2019-03-08T23:18:25.991Z,10.57
2019-03-08T23:20:53.589Z,5.73
2019-03-08T23:23:21.229Z,8.10
2019-03-08T23:25:49.061Z,6.20
2019-03-08T23:28:21.910Z,5.87
2019-03-08T23:30:51.503Z,5.53
2019-03-08T23:33:19.235Z,5.57
2019-03-08T23:35:46.851Z,6.47
2019-03-08T23:38:14.488Z,5.00
2019-03-08T23:40:42.062Z,7.37
2019-03-08T23:43:09.776Z,6.67
2019-03-08T23:45:37.364Z,6.70
2019-03-08T23:48:05.211Z,7.80
2019-03-08T23:50:32.814Z,7.13
2019-03-08T23:53:00.488Z,4.80
2019-03-08T23:55:28.117Z,6.60
2019-03-08T23:57:55.783Z,5.20
